sensor_id;sensor_type;location;lat;lon;timestamp;temperature;humidity
31747;DHT22;18319;48.974;8.462;2022-10-31T00:02:26;13.90;99.90
31747;DHT22;18319;48.974;8.462;2022-10-31T00:04:53;14.00;99.90
31747;DHT22;18319;48.974;8.462;2022-10-31T00:07:20;13.80;99.90
31747;DHT22;18319;48.974;8.462;2022-10-31T00:09:48;13.80;99.90
31747;DHT22;18319;48.974;8.462;2022-10-31T00:12:15;13.80;99.90
31747;DHT22;18319;48.974;8.462;2022-10-31T00:14:41;13.90;99.90
31747;DHT22;18319;48.974;8.462;2022-10-31T00:17:08;13.80;99.90
31747;DHT22;18319;48.974;8.462;2022-10-31T00:19:35;13.70;99.90
31747;DHT22;18319;48.974;8.462;2022-10-31T00:22:01;13.70;99.90
31747;DHT22;18319;48.974;8.462;2022-10-31T00:24:28;13.70;99.90
31747;DHT22;18319;48.974;8.462;2022-10-31T00:26:56;13.70;99.90
31747;DHT22;18319;48.974;8.462;2022-10-31T00:29:23;13.80;99.90
31747;DHT22;18319;48.974;8.462;2022-10-31T00:31:51;13.70;99.90
31747;DHT22;18319;48.974;8.462;2022-10-31T00:36:45;13.60;99.90
31747;DHT22;18319;48.974;8.462;2022-10-31T00:41:39;13.60;99.90
31747;DHT22;18319;48.974;8.462;2022-10-31T00:44:07;13.50;99.90
31747;DHT22;18319;48.974;8.462;2022-10-31T00:46:34;13.50;99.90
31747;DHT22;18319;48.974;8.462;2022-10-31T00:49:00;13.50;99.90
31747;DHT22;18319;48.974;8.462;2022-10-31T00:51:27;13.50;99.90
31747;DHT22;18319;48.974;8.462;2022-10-31T00:53:54;13.40;99.90
31747;DHT22;18319;48.974;8.462;2022-10-31T00:56:21;13.40;99.90
31747;DHT22;18319;48.974;8.462;2022-10-31T00:58:47;13.40;99.90
31747;DHT22;18319;48.974;8.462;2022-10-31T01:01:15;13.40;99.90
31747;DHT22;18319;48.974;8.462;2022-10-31T01:16:03;13.50;99.90
31747;DHT22;18319;48.974;8.462;2022-10-31T01:18:33;13.40;99.90
31747;DHT22;18319;48.974;8.462;2022-10-31T01:28:26;13.30;99.90
31747;DHT22;18319;48.974;8.462;2022-10-31T01:30:53;13.20;99.90
31747;DHT22;18319;48.974;8.462;2022-10-31T01:40:42;13.10;99.90
31747;DHT22;18319;48.974;8.462;2022-10-31T01:50:38;12.90;99.90
31747;DHT22;18319;48.974;8.462;2022-10-31T02:12:57;12.60;99.90
31747;DHT22;18319;48.974;8.462;2022-10-31T02:17:51;12.50;99.90
31747;DHT22;18319;48.974;8.462;2022-10-31T02:20:20;12.40;99.90
31747;DHT22;18319;48.974;8.462;2022-10-31T02:28:30;12.40;99.90
31747;DHT22;18319;48.974;8.462;2022-10-31T02:33:40;12.40;99.90
31747;DHT22;18319;48.974;8.462;2022-10-31T02:38:47;12.30;99.90
31747;DHT22;18319;48.974;8.462;2022-10-31T02:43:55;12.30;99.90
31747;DHT22;18319;48.974;8.462;2022-10-31T02:46:30;12.30;99.90
31747;DHT22;18319;48.974;8.462;2022-10-31T02:49:03;12.30;99.90
31747;DHT22;18319;48.974;8.462;2022-10-31T02:51:32;12.30;99.90
31747;DHT22;18319;48.974;8.462;2022-10-31T02:53:59;12.20;99.90
31747;DHT22;18319;48.974;8.462;2022-10-31T02:58:57;12.20;99.90
31747;DHT22;18319;48.974;8.462;2022-10-31T03:01:44;12.20;99.90
31747;DHT22;18319;48.974;8.462;2022-10-31T03:04:40;12.20;99.90
31747;DHT22;18319;48.974;8.462;2022-10-31T03:07:12;12.10;99.90
31747;DHT22;18319;48.974;8.462;2022-10-31T03:12:14;12.00;99.90
31747;DHT22;18319;48.974;8.462;2022-10-31T03:14:50;12.00;99.90
31747;DHT22;18319;48.974;8.462;2022-10-31T03:17:23;12.00;99.90
31747;DHT22;18319;48.974;8.462;2022-10-31T03:19:55;11.90;99.90
31747;DHT22;18319;48.974;8.462;2022-10-31T03:22:26;11.90;99.90
31747;DHT22;18319;48.974;8.462;2022-10-31T03:24:55;11.80;99.90
31747;DHT22;18319;48.974;8.462;2022-10-31T03:27:25;11.80;99.90
31747;DHT22;18319;48.974;8.462;2022-10-31T03:29:54;11.80;99.90
31747;DHT22;18319;48.974;8.462;2022-10-31T03:32:27;11.80;99.90
31747;DHT22;18319;48.974;8.462;2022-10-31T03:34:57;11.80;99.90
31747;DHT22;18319;48.974;8.462;2022-10-31T03:37:27;11.80;99.90
31747;DHT22;18319;48.974;8.462;2022-10-31T03:39:58;11.80;99.90
31747;DHT22;18319;48.974;8.462;2022-10-31T03:42:30;11.90;99.90
31747;DHT22;18319;48.974;8.462;2022-10-31T03:45:00;11.90;99.90
31747;DHT22;18319;48.974;8.462;2022-10-31T03:47:30;11.90;99.90
31747;DHT22;18319;48.974;8.462;2022-10-31T03:49:58;11.90;99.90
31747;DHT22;18319;48.974;8.462;2022-10-31T03:52:26;11.90;99.90
31747;DHT22;18319;48.974;8.462;2022-10-31T03:54:56;11.90;99.90
31747;DHT22;18319;48.974;8.462;2022-10-31T03:57:27;11.90;99.90
31747;DHT22;18319;48.974;8.462;2022-10-31T03:59:58;11.80;99.90
31747;DHT22;18319;48.974;8.462;2022-10-31T04:02:32;11.90;99.90
31747;DHT22;18319;48.974;8.462;2022-10-31T04:05:00;11.80;99.90
31747;DHT22;18319;48.974;8.462;2022-10-31T04:07:31;11.80;99.90
31747;DHT22;18319;48.974;8.462;2022-10-31T04:10:00;11.80;99.90
31747;DHT22;18319;48.974;8.462;2022-10-31T04:14:57;11.80;99.90
31747;DHT22;18319;48.974;8.462;2022-10-31T04:17:28;11.80;99.90
31747;DHT22;18319;48.974;8.462;2022-10-31T04:20:00;11.80;99.90
31747;DHT22;18319;48.974;8.462;2022-10-31T04:22:27;11.70;99.90
31747;DHT22;18319;48.974;8.462;2022-10-31T04:24:53;11.70;99.90
31747;DHT22;18319;48.974;8.462;2022-10-31T04:27:20;11.70;99.90
31747;DHT22;18319;48.974;8.462;2022-10-31T04:29:47;11.70;99.90
31747;DHT22;18319;48.974;8.462;2022-10-31T04:32:14;11.60;99.90
31747;DHT22;18319;48.974;8.462;2022-10-31T04:34:40;11.70;99.90
31747;DHT22;18319;48.974;8.462;2022-10-31T04:37:33;11.70;99.90
31747;DHT22;18319;48.974;8.462;2022-10-31T04:39:59;11.60;99.90
31747;DHT22;18319;48.974;8.462;2022-10-31T04:42:29;11.60;99.90
31747;DHT22;18319;48.974;8.462;2022-10-31T04:44:55;11.60;99.90
31747;DHT22;18319;48.974;8.462;2022-10-31T04:52:16;11.60;99.90
31747;DHT22;18319;48.974;8.462;2022-10-31T04:54:44;11.60;99.90
31747;DHT22;18319;48.974;8.462;2022-10-31T05:04:32;11.50;99.90
31747;DHT22;18319;48.974;8.462;2022-10-31T05:09:26;11.50;99.90
31747;DHT22;18319;48.974;8.462;2022-10-31T05:21:43;11.40;99.90
31747;DHT22;18319;48.974;8.462;2022-10-31T05:41:20;11.40;99.90
31747;DHT22;18319;48.974;8.462;2022-10-31T05:43:47;11.30;99.90
31747;DHT22;18319;48.974;8.462;2022-10-31T05:46:15;11.30;99.90
31747;DHT22;18319;48.974;8.462;2022-10-31T05:51:09;11.30;99.90
31747;DHT22;18319;48.974;8.462;2022-10-31T05:53:35;11.30;99.90
31747;DHT22;18319;48.974;8.462;2022-10-31T05:56:57;11.20;99.90
31747;DHT22;18319;48.974;8.462;2022-10-31T06:02:07;11.20;99.90
31747;DHT22;18319;48.974;8.462;2022-10-31T06:07:01;11.10;99.90
31747;DHT22;18319;48.974;8.462;2022-10-31T06:19:18;11.10;99.90
31747;DHT22;18319;48.974;8.462;2022-10-31T06:21:44;11.10;99.90
31747;DHT22;18319;48.974;8.462;2022-10-31T06:29:05;11.30;99.90
31747;DHT22;18319;48.974;8.462;2022-10-31T06:31:32;11.30;99.90
31747;DHT22;18319;48.974;8.462;2022-10-31T06:33:59;11.30;99.90
31747;DHT22;18319;48.974;8.462;2022-10-31T06:36:27;11.30;99.90
31747;DHT22;18319;48.974;8.462;2022-10-31T06:41:21;11.40;99.90
31747;DHT22;18319;48.974;8.462;2022-10-31T06:43:47;11.50;99.90
31747;DHT22;18319;48.974;8.462;2022-10-31T06:48:41;11.60;99.90
31747;DHT22;18319;48.974;8.462;2022-10-31T06:51:08;11.60;99.90
31747;DHT22;18319;48.974;8.462;2022-10-31T06:53:36;11.70;99.90
31747;DHT22;18319;48.974;8.462;2022-10-31T06:56:04;11.70;99.90
31747;DHT22;18319;48.974;8.462;2022-10-31T06:58:31;11.70;99.90
31747;DHT22;18319;48.974;8.462;2022-10-31T07:03:26;11.80;99.90
31747;DHT22;18319;48.974;8.462;2022-10-31T07:08:22;11.90;99.90
31747;DHT22;18319;48.974;8.462;2022-10-31T07:13:20;11.90;99.90
31747;DHT22;18319;48.974;8.462;2022-10-31T07:15:50;12.00;99.90
31747;DHT22;18319;48.974;8.462;2022-10-31T07:18:17;12.10;99.90
31747;DHT22;18319;48.974;8.462;2022-10-31T07:20:44;12.10;99.90
31747;DHT22;18319;48.974;8.462;2022-10-31T07:23:11;12.10;99.90
31747;DHT22;18319;48.974;8.462;2022-10-31T07:25:38;12.10;99.90
31747;DHT22;18319;48.974;8.462;2022-10-31T07:30:34;12.20;99.90
31747;DHT22;18319;48.974;8.462;2022-10-31T07:33:01;12.20;99.90
31747;DHT22;18319;48.974;8.462;2022-10-31T07:35:29;12.30;99.90
31747;DHT22;18319;48.974;8.462;2022-10-31T07:37:56;12.40;99.90
31747;DHT22;18319;48.974;8.462;2022-10-31T07:42:52;12.50;99.90
31747;DHT22;18319;48.974;8.462;2022-10-31T07:45:20;12.50;99.90
31747;DHT22;18319;48.974;8.462;2022-10-31T07:47:48;12.70;99.90
31747;DHT22;18319;48.974;8.462;2022-10-31T07:52:43;12.70;99.90
31747;DHT22;18319;48.974;8.462;2022-10-31T07:55:11;12.80;99.90
31747;DHT22;18319;48.974;8.462;2022-10-31T07:57:37;12.90;99.90
31747;DHT22;18319;48.974;8.462;2022-10-31T08:00:06;13.00;99.90
31747;DHT22;18319;48.974;8.462;2022-10-31T08:02:35;12.90;99.90
31747;DHT22;18319;48.974;8.462;2022-10-31T08:05:02;13.00;99.90
31747;DHT22;18319;48.974;8.462;2022-10-31T08:07:29;13.10;99.90
31747;DHT22;18319;48.974;8.462;2022-10-31T08:09:56;13.00;99.90
31747;DHT22;18319;48.974;8.462;2022-10-31T08:12:22;13.10;99.90
31747;DHT22;18319;48.974;8.462;2022-10-31T08:14:49;13.10;99.90
31747;DHT22;18319;48.974;8.462;2022-10-31T08:17:16;13.20;99.90
31747;DHT22;18319;48.974;8.462;2022-10-31T08:19:44;13.40;99.90
31747;DHT22;18319;48.974;8.462;2022-10-31T08:22:11;13.40;99.90
31747;DHT22;18319;48.974;8.462;2022-10-31T08:24:38;13.50;99.90
31747;DHT22;18319;48.974;8.462;2022-10-31T08:27:04;13.60;99.90
31747;DHT22;18319;48.974;8.462;2022-10-31T08:29:31;13.70;99.90
31747;DHT22;18319;48.974;8.462;2022-10-31T08:31:58;13.80;99.90
31747;DHT22;18319;48.974;8.462;2022-10-31T08:34:25;13.90;99.90
31747;DHT22;18319;48.974;8.462;2022-10-31T08:36:53;13.90;99.90
31747;DHT22;18319;48.974;8.462;2022-10-31T08:39:20;14.00;99.90
31747;DHT22;18319;48.974;8.462;2022-10-31T08:41:47;14.10;99.90
31747;DHT22;18319;48.974;8.462;2022-10-31T08:44:14;14.20;99.90
31747;DHT22;18319;48.974;8.462;2022-10-31T08:46:41;14.30;99.90
31747;DHT22;18319;48.974;8.462;2022-10-31T08:49:07;14.40;99.90
31747;DHT22;18319;48.974;8.462;2022-10-31T08:51:34;14.60;99.90
31747;DHT22;18319;48.974;8.462;2022-10-31T08:54:03;14.60;99.90
31747;DHT22;18319;48.974;8.462;2022-10-31T08:56:29;14.60;99.90
31747;DHT22;18319;48.974;8.462;2022-10-31T08:58:56;14.60;99.90
31747;DHT22;18319;48.974;8.462;2022-10-31T09:01:23;14.60;99.90
31747;DHT22;18319;48.974;8.462;2022-10-31T09:03:50;14.70;99.90
31747;DHT22;18319;48.974;8.462;2022-10-31T09:06:17;14.70;99.90
31747;DHT22;18319;48.974;8.462;2022-10-31T09:08:44;14.90;99.90
31747;DHT22;18319;48.974;8.462;2022-10-31T09:11:16;14.80;99.90
31747;DHT22;18319;48.974;8.462;2022-10-31T09:13:45;14.90;99.90
31747;DHT22;18319;48.974;8.462;2022-10-31T09:16:12;14.90;99.90
31747;DHT22;18319;48.974;8.462;2022-10-31T09:18:39;14.90;99.90
31747;DHT22;18319;48.974;8.462;2022-10-31T09:21:07;14.90;99.90
31747;DHT22;18319;48.974;8.462;2022-10-31T09:23:33;14.80;99.90
31747;DHT22;18319;48.974;8.462;2022-10-31T09:26:01;14.90;99.90
31747;DHT22;18319;48.974;8.462;2022-10-31T09:28:30;14.90;99.90
31747;DHT22;18319;48.974;8.462;2022-10-31T09:30:58;14.90;99.90
31747;DHT22;18319;48.974;8.462;2022-10-31T09:33:24;15.00;99.90
31747;DHT22;18319;48.974;8.462;2022-10-31T09:35:51;14.90;99.90
31747;DHT22;18319;48.974;8.462;2022-10-31T09:38:19;14.90;99.90
31747;DHT22;18319;48.974;8.462;2022-10-31T09:40:51;15.00;99.90
31747;DHT22;18319;48.974;8.462;2022-10-31T09:43:25;15.00;99.90
31747;DHT22;18319;48.974;8.462;2022-10-31T09:46:01;14.90;99.90
31747;DHT22;18319;48.974;8.462;2022-10-31T09:48:43;15.00;99.90
31747;DHT22;18319;48.974;8.462;2022-10-31T09:51:15;15.00;99.90
31747;DHT22;18319;48.974;8.462;2022-10-31T09:53:47;15.10;99.90
31747;DHT22;18319;48.974;8.462;2022-10-31T09:56:16;15.20;99.90
31747;DHT22;18319;48.974;8.462;2022-10-31T09:58:46;15.20;99.90
31747;DHT22;18319;48.974;8.462;2022-10-31T10:01:28;15.20;99.90
31747;DHT22;18319;48.974;8.462;2022-10-31T10:03:58;15.20;99.90
31747;DHT22;18319;48.974;8.462;2022-10-31T10:06:28;15.10;99.90
31747;DHT22;18319;48.974;8.462;2022-10-31T10:08:56;15.00;99.90
31747;DHT22;18319;48.974;8.462;2022-10-31T10:11:34;15.00;99.90
31747;DHT22;18319;48.974;8.462;2022-10-31T10:16:56;15.10;99.90
31747;DHT22;18319;48.974;8.462;2022-10-31T10:19:34;15.10;99.90
31747;DHT22;18319;48.974;8.462;2022-10-31T10:22:10;15.20;99.90
31747;DHT22;18319;48.974;8.462;2022-10-31T10:24:52;15.30;99.90
31747;DHT22;18319;48.974;8.462;2022-10-31T10:27:26;15.20;99.90
31747;DHT22;18319;48.974;8.462;2022-10-31T10:30:00;15.30;99.90
31747;DHT22;18319;48.974;8.462;2022-10-31T10:32:34;15.50;99.90
31747;DHT22;18319;48.974;8.462;2022-10-31T10:35:14;15.50;99.90
31747;DHT22;18319;48.974;8.462;2022-10-31T10:37:43;15.60;99.90
31747;DHT22;18319;48.974;8.462;2022-10-31T10:40:15;15.70;99.90
31747;DHT22;18319;48.974;8.462;2022-10-31T10:42:45;15.80;99.90
31747;DHT22;18319;48.974;8.462;2022-10-31T10:45:33;15.80;99.90
31747;DHT22;18319;48.974;8.462;2022-10-31T10:48:26;15.90;99.90
31747;DHT22;18319;48.974;8.462;2022-10-31T10:50:54;16.00;99.90
31747;DHT22;18319;48.974;8.462;2022-10-31T10:53:34;16.20;99.90
31747;DHT22;18319;48.974;8.462;2022-10-31T10:56:17;16.30;99.90
31747;DHT22;18319;48.974;8.462;2022-10-31T10:58:46;16.30;99.90
31747;DHT22;18319;48.974;8.462;2022-10-31T11:01:15;16.50;99.90
31747;DHT22;18319;48.974;8.462;2022-10-31T11:03:43;16.50;99.90
31747;DHT22;18319;48.974;8.462;2022-10-31T11:06:20;16.70;99.90
31747;DHT22;18319;48.974;8.462;2022-10-31T11:08:51;16.70;99.90
31747;DHT22;18319;48.974;8.462;2022-10-31T11:11:23;16.80;99.90
31747;DHT22;18319;48.974;8.462;2022-10-31T11:13:54;16.70;99.90
31747;DHT22;18319;48.974;8.462;2022-10-31T11:16:30;17.00;99.90
31747;DHT22;18319;48.974;8.462;2022-10-31T11:19:08;17.10;99.90
31747;DHT22;18319;48.974;8.462;2022-10-31T11:21:36;16.90;99.90
31747;DHT22;18319;48.974;8.462;2022-10-31T11:24:07;17.10;99.90
31747;DHT22;18319;48.974;8.462;2022-10-31T11:26:39;17.10;99.90
31747;DHT22;18319;48.974;8.462;2022-10-31T11:29:14;17.00;99.90
31747;DHT22;18319;48.974;8.462;2022-10-31T11:31:43;17.10;99.90
31747;DHT22;18319;48.974;8.462;2022-10-31T11:34:27;17.20;99.90
31747;DHT22;18319;48.974;8.462;2022-10-31T11:36:58;17.20;99.90
31747;DHT22;18319;48.974;8.462;2022-10-31T11:39:27;17.30;99.90
31747;DHT22;18319;48.974;8.462;2022-10-31T11:41:55;17.20;99.90
31747;DHT22;18319;48.974;8.462;2022-10-31T11:44:27;17.10;99.90
31747;DHT22;18319;48.974;8.462;2022-10-31T11:46:56;17.10;99.90
31747;DHT22;18319;48.974;8.462;2022-10-31T11:49:30;17.30;99.90
31747;DHT22;18319;48.974;8.462;2022-10-31T11:52:00;17.20;99.90
31747;DHT22;18319;48.974;8.462;2022-10-31T11:54:31;17.20;99.90
31747;DHT22;18319;48.974;8.462;2022-10-31T11:56:59;17.30;99.90
31747;DHT22;18319;48.974;8.462;2022-10-31T11:59:27;17.40;99.90
31747;DHT22;18319;48.974;8.462;2022-10-31T12:01:57;17.40;99.90
31747;DHT22;18319;48.974;8.462;2022-10-31T12:04:30;17.40;99.90
31747;DHT22;18319;48.974;8.462;2022-10-31T12:06:59;17.40;99.90
31747;DHT22;18319;48.974;8.462;2022-10-31T12:09:28;17.60;99.90
31747;DHT22;18319;48.974;8.462;2022-10-31T12:12:10;17.40;99.90
31747;DHT22;18319;48.974;8.462;2022-10-31T12:14:47;17.30;99.90
31747;DHT22;18319;48.974;8.462;2022-10-31T12:17:19;17.40;99.90
31747;DHT22;18319;48.974;8.462;2022-10-31T12:20:03;17.50;99.90
31747;DHT22;18319;48.974;8.462;2022-10-31T12:22:41;17.50;99.90
31747;DHT22;18319;48.974;8.462;2022-10-31T12:25:21;17.40;99.90
31747;DHT22;18319;48.974;8.462;2022-10-31T12:28:18;17.40;99.90
31747;DHT22;18319;48.974;8.462;2022-10-31T12:31:01;17.50;99.90
31747;DHT22;18319;48.974;8.462;2022-10-31T12:33:45;17.50;99.90
31747;DHT22;18319;48.974;8.462;2022-10-31T12:36:41;17.40;99.90
31747;DHT22;18319;48.974;8.462;2022-10-31T12:39:25;17.60;99.90
31747;DHT22;18319;48.974;8.462;2022-10-31T12:42:05;17.50;99.90
31747;DHT22;18319;48.974;8.462;2022-10-31T12:44:54;17.60;99.90
31747;DHT22;18319;48.974;8.462;2022-10-31T12:47:37;17.60;99.90
31747;DHT22;18319;48.974;8.462;2022-10-31T12:50:27;17.50;99.90
31747;DHT22;18319;48.974;8.462;2022-10-31T12:53:04;17.50;99.90
31747;DHT22;18319;48.974;8.462;2022-10-31T12:55:44;17.30;99.90
31747;DHT22;18319;48.974;8.462;2022-10-31T12:58:19;17.20;99.90
31747;DHT22;18319;48.974;8.462;2022-10-31T13:00:50;17.20;99.90
31747;DHT22;18319;48.974;8.462;2022-10-31T13:03:25;17.20;99.90
31747;DHT22;18319;48.974;8.462;2022-10-31T13:05:58;17.40;99.90
31747;DHT22;18319;48.974;8.462;2022-10-31T13:08:30;17.60;99.90
31747;DHT22;18319;48.974;8.462;2022-10-31T13:11:05;17.90;99.90
31747;DHT22;18319;48.974;8.462;2022-10-31T13:13:35;18.00;99.90
31747;DHT22;18319;48.974;8.462;2022-10-31T13:16:08;18.20;99.90
31747;DHT22;18319;48.974;8.462;2022-10-31T13:18:40;18.10;99.90
31747;DHT22;18319;48.974;8.462;2022-10-31T13:21:13;18.00;99.90
31747;DHT22;18319;48.974;8.462;2022-10-31T13:23:47;17.90;99.90
31747;DHT22;18319;48.974;8.462;2022-10-31T13:26:20;17.70;99.90
31747;DHT22;18319;48.974;8.462;2022-10-31T13:28:54;17.50;99.90
31747;DHT22;18319;48.974;8.462;2022-10-31T13:31:21;17.40;99.90
31747;DHT22;18319;48.974;8.462;2022-10-31T13:33:51;17.40;99.90
31747;DHT22;18319;48.974;8.462;2022-10-31T13:36:25;17.10;99.90
31747;DHT22;18319;48.974;8.462;2022-10-31T13:38:56;17.00;99.90
31747;DHT22;18319;48.974;8.462;2022-10-31T13:41:33;17.20;99.90
31747;DHT22;18319;48.974;8.462;2022-10-31T13:44:08;17.00;99.90
31747;DHT22;18319;48.974;8.462;2022-10-31T13:46:39;16.90;99.90
31747;DHT22;18319;48.974;8.462;2022-10-31T13:49:24;16.70;99.90
31747;DHT22;18319;48.974;8.462;2022-10-31T13:51:52;16.60;99.90
31747;DHT22;18319;48.974;8.462;2022-10-31T13:54:31;16.40;99.90
31747;DHT22;18319;48.974;8.462;2022-10-31T13:56:59;16.20;99.90
31747;DHT22;18319;48.974;8.462;2022-10-31T13:59:27;16.20;99.90
31747;DHT22;18319;48.974;8.462;2022-10-31T14:01:56;16.10;99.90
31747;DHT22;18319;48.974;8.462;2022-10-31T14:04:25;15.90;99.90
31747;DHT22;18319;48.974;8.462;2022-10-31T14:06:56;15.70;99.90
31747;DHT22;18319;48.974;8.462;2022-10-31T14:09:32;15.70;99.90
31747;DHT22;18319;48.974;8.462;2022-10-31T14:12:03;15.60;99.90
31747;DHT22;18319;48.974;8.462;2022-10-31T14:14:35;15.50;99.90
31747;DHT22;18319;48.974;8.462;2022-10-31T14:17:17;15.40;99.90
31747;DHT22;18319;48.974;8.462;2022-10-31T14:19:59;15.40;99.90
31747;DHT22;18319;48.974;8.462;2022-10-31T14:22:31;15.40;99.90
31747;DHT22;18319;48.974;8.462;2022-10-31T14:24:59;15.50;99.90
31747;DHT22;18319;48.974;8.462;2022-10-31T14:27:35;15.50;99.90
31747;DHT22;18319;48.974;8.462;2022-10-31T14:30:15;15.60;99.90
31747;DHT22;18319;48.974;8.462;2022-10-31T14:32:43;15.60;99.90
31747;DHT22;18319;48.974;8.462;2022-10-31T14:35:15;15.70;99.90
31747;DHT22;18319;48.974;8.462;2022-10-31T14:40:42;15.90;99.90
31747;DHT22;18319;48.974;8.462;2022-10-31T14:43:36;15.80;99.90
31747;DHT22;18319;48.974;8.462;2022-10-31T14:46:08;15.90;99.90
31747;DHT22;18319;48.974;8.462;2022-10-31T14:49:11;15.80;99.90
31747;DHT22;18319;48.974;8.462;2022-10-31T14:51:43;15.90;99.90
31747;DHT22;18319;48.974;8.462;2022-10-31T14:54:14;16.00;99.90
31747;DHT22;18319;48.974;8.462;2022-10-31T14:56:49;15.90;99.90
31747;DHT22;18319;48.974;8.462;2022-10-31T14:59:20;16.00;99.90
31747;DHT22;18319;48.974;8.462;2022-10-31T15:01:54;16.00;99.90
31747;DHT22;18319;48.974;8.462;2022-10-31T15:04:24;16.00;99.90
31747;DHT22;18319;48.974;8.462;2022-10-31T15:07:00;16.00;99.90
31747;DHT22;18319;48.974;8.462;2022-10-31T15:09:30;16.20;99.90
31747;DHT22;18319;48.974;8.462;2022-10-31T15:11:59;16.10;99.90
31747;DHT22;18319;48.974;8.462;2022-10-31T15:14:28;16.00;99.90
31747;DHT22;18319;48.974;8.462;2022-10-31T15:16:57;16.10;99.90
31747;DHT22;18319;48.974;8.462;2022-10-31T15:19:26;16.00;99.90
31747;DHT22;18319;48.974;8.462;2022-10-31T15:21:55;15.90;99.90
31747;DHT22;18319;48.974;8.462;2022-10-31T15:24:24;16.00;99.90
31747;DHT22;18319;48.974;8.462;2022-10-31T15:26:55;15.90;99.90
31747;DHT22;18319;48.974;8.462;2022-10-31T15:29:25;15.80;99.90
31747;DHT22;18319;48.974;8.462;2022-10-31T15:31:52;15.60;99.90
31747;DHT22;18319;48.974;8.462;2022-10-31T15:34:25;15.50;99.90
31747;DHT22;18319;48.974;8.462;2022-10-31T15:36:52;15.40;99.90
31747;DHT22;18319;48.974;8.462;2022-10-31T15:39:19;15.40;99.90
31747;DHT22;18319;48.974;8.462;2022-10-31T15:41:50;15.30;99.90
31747;DHT22;18319;48.974;8.462;2022-10-31T15:44:23;15.40;99.90
31747;DHT22;18319;48.974;8.462;2022-10-31T15:46:58;15.40;99.90
31747;DHT22;18319;48.974;8.462;2022-10-31T15:49:33;15.30;99.90
31747;DHT22;18319;48.974;8.462;2022-10-31T15:52:11;15.40;99.90
31747;DHT22;18319;48.974;8.462;2022-10-31T15:54:47;15.30;99.90
31747;DHT22;18319;48.974;8.462;2022-10-31T15:57:15;15.20;99.90
31747;DHT22;18319;48.974;8.462;2022-10-31T15:59:46;15.10;99.90
31747;DHT22;18319;48.974;8.462;2022-10-31T16:02:15;15.10;99.90
31747;DHT22;18319;48.974;8.462;2022-10-31T16:04:55;15.10;99.90
31747;DHT22;18319;48.974;8.462;2022-10-31T16:07:23;15.10;99.90
31747;DHT22;18319;48.974;8.462;2022-10-31T16:09:53;15.10;99.90
31747;DHT22;18319;48.974;8.462;2022-10-31T16:12:21;15.00;99.90
31747;DHT22;18319;48.974;8.462;2022-10-31T16:14:50;14.90;99.90
31747;DHT22;18319;48.974;8.462;2022-10-31T16:17:20;15.00;99.90
31747;DHT22;18319;48.974;8.462;2022-10-31T16:19:51;14.90;99.90
31747;DHT22;18319;48.974;8.462;2022-10-31T16:22:22;14.90;99.90
31747;DHT22;18319;48.974;8.462;2022-10-31T16:24:54;14.90;99.90
31747;DHT22;18319;48.974;8.462;2022-10-31T16:27:23;14.90;99.90
31747;DHT22;18319;48.974;8.462;2022-10-31T16:29:54;15.10;99.90
31747;DHT22;18319;48.974;8.462;2022-10-31T16:32:25;15.00;99.90
31747;DHT22;18319;48.974;8.462;2022-10-31T16:34:58;15.00;99.90
31747;DHT22;18319;48.974;8.462;2022-10-31T16:37:25;14.90;99.90
31747;DHT22;18319;48.974;8.462;2022-10-31T16:39:52;14.90;99.90
31747;DHT22;18319;48.974;8.462;2022-10-31T16:42:19;14.80;99.90
31747;DHT22;18319;48.974;8.462;2022-10-31T16:44:47;14.80;99.90
31747;DHT22;18319;48.974;8.462;2022-10-31T16:47:17;14.80;99.90
31747;DHT22;18319;48.974;8.462;2022-10-31T16:49:47;14.70;99.90
31747;DHT22;18319;48.974;8.462;2022-10-31T16:52:14;14.70;99.90
31747;DHT22;18319;48.974;8.462;2022-10-31T16:54:40;14.70;99.90
31747;DHT22;18319;48.974;8.462;2022-10-31T16:57:13;14.80;99.90
31747;DHT22;18319;48.974;8.462;2022-10-31T16:59:42;14.70;99.90
31747;DHT22;18319;48.974;8.462;2022-10-31T17:02:14;14.80;99.90
31747;DHT22;18319;48.974;8.462;2022-10-31T17:04:43;14.70;99.90
31747;DHT22;18319;48.974;8.462;2022-10-31T17:07:10;14.80;99.90
31747;DHT22;18319;48.974;8.462;2022-10-31T17:09:37;14.60;99.90
31747;DHT22;18319;48.974;8.462;2022-10-31T17:12:06;14.60;99.90
31747;DHT22;18319;48.974;8.462;2022-10-31T17:14:33;14.50;99.90
31747;DHT22;18319;48.974;8.462;2022-10-31T17:17:01;14.50;99.90
31747;DHT22;18319;48.974;8.462;2022-10-31T17:19:27;14.40;99.90
31747;DHT22;18319;48.974;8.462;2022-10-31T17:24:23;14.30;99.90
31747;DHT22;18319;48.974;8.462;2022-10-31T17:26:49;14.30;99.90
31747;DHT22;18319;48.974;8.462;2022-10-31T17:29:16;14.40;99.90
31747;DHT22;18319;48.974;8.462;2022-10-31T17:31:43;14.30;99.90
31747;DHT22;18319;48.974;8.462;2022-10-31T17:34:10;14.20;99.90
31747;DHT22;18319;48.974;8.462;2022-10-31T17:36:37;14.20;99.90
31747;DHT22;18319;48.974;8.462;2022-10-31T17:39:05;14.20;99.90
31747;DHT22;18319;48.974;8.462;2022-10-31T17:41:34;14.20;99.90
31747;DHT22;18319;48.974;8.462;2022-10-31T17:44:01;14.20;99.90
31747;DHT22;18319;48.974;8.462;2022-10-31T17:46:27;14.20;99.90
31747;DHT22;18319;48.974;8.462;2022-10-31T17:48:54;14.20;99.90
31747;DHT22;18319;48.974;8.462;2022-10-31T17:51:21;14.10;99.90
31747;DHT22;18319;48.974;8.462;2022-10-31T17:53:48;14.10;99.90
31747;DHT22;18319;48.974;8.462;2022-10-31T17:56:16;14.20;99.90
31747;DHT22;18319;48.974;8.462;2022-10-31T17:58:42;14.20;99.90
31747;DHT22;18319;48.974;8.462;2022-10-31T18:01:11;14.40;99.90
31747;DHT22;18319;48.974;8.462;2022-10-31T18:03:39;14.40;99.90
31747;DHT22;18319;48.974;8.462;2022-10-31T18:06:06;14.40;99.90
31747;DHT22;18319;48.974;8.462;2022-10-31T18:08:37;14.40;99.90
31747;DHT22;18319;48.974;8.462;2022-10-31T18:11:05;14.40;99.90
31747;DHT22;18319;48.974;8.462;2022-10-31T18:13:35;14.40;99.90
31747;DHT22;18319;48.974;8.462;2022-10-31T18:16:06;14.50;99.90
31747;DHT22;18319;48.974;8.462;2022-10-31T18:18:33;14.40;99.90
31747;DHT22;18319;48.974;8.462;2022-10-31T18:21:00;14.30;99.90
31747;DHT22;18319;48.974;8.462;2022-10-31T18:23:26;14.20;99.90
31747;DHT22;18319;48.974;8.462;2022-10-31T18:25:53;14.30;99.90
31747;DHT22;18319;48.974;8.462;2022-10-31T18:28:20;14.10;99.90
31747;DHT22;18319;48.974;8.462;2022-10-31T18:30:48;14.10;99.90
31747;DHT22;18319;48.974;8.462;2022-10-31T18:33:15;14.00;99.90
31747;DHT22;18319;48.974;8.462;2022-10-31T18:35:42;14.00;99.90
31747;DHT22;18319;48.974;8.462;2022-10-31T18:38:09;13.90;99.90
31747;DHT22;18319;48.974;8.462;2022-10-31T18:40:36;13.90;99.90
31747;DHT22;18319;48.974;8.462;2022-10-31T18:43:02;13.90;99.90
31747;DHT22;18319;48.974;8.462;2022-10-31T18:45:30;13.80;99.90
31747;DHT22;18319;48.974;8.462;2022-10-31T18:47:58;13.80;99.90